Time;durP1;ratioP1;P1;durP2;ratioP2;P2;SDS_P1;SDS_P2;PMS_P1;PMS_P2;Temp;Humidity;BMP_temperature;BMP_pressure;BME280_temperature;BME280_humidity;BME280_pressure;Samples;Min_cycle;Max_cycle;Signal;HPM_P1;HPM_P2
2022/12/08 00:02:25;;;;;;;1.80;1.30;;;;;;;-2.05;100.00;100194.56;4985766;28;20297;-73
2022/12/08 00:10:22;;;;;;;1.50;1.13;;;;;;;-2.00;100.00;100195.50;4983254;28;20225;-73
2022/12/08 00:12:50;;;;;;;2.07;1.40;;;;;;;-1.99;100.00;100191.25;4990519;28;20217;-74
2022/12/08 00:15:16;;;;;;;2.57;1.20;;;;;;;-1.98;100.00;100190.44;4996281;28;20213;-74
2022/12/08 00:17:43;;;;;;;2.47;1.40;;;;;;;-1.96;100.00;100178.53;4993277;28;20220;-73
2022/12/08 00:20:10;;;;;;;5.07;1.30;;;;;;;-1.93;100.00;100186.28;5052242;28;20201;-73
2022/12/08 00:22:38;;;;;;;1.53;1.10;;;;;;;-1.91;100.00;100185.44;4985084;28;20228;-74
2022/12/08 00:25:05;;;;;;;2.40;1.63;;;;;;;-1.86;100.00;100182.13;4984476;28;21502;-74
2022/12/08 00:27:31;;;;;;;2.20;1.33;;;;;;;-1.83;100.00;100182.16;4989715;28;20301;-74
2022/12/08 00:29:59;;;;;;;2.67;1.40;;;;;;;-1.78;100.00;100181.41;4978117;28;20228;-73
2022/12/08 00:32:25;;;;;;;3.03;1.77;;;;;;;-1.72;100.00;100183.22;4989375;28;20229;-73
2022/12/08 00:34:52;;;;;;;2.97;1.40;;;;;;;-1.68;100.00;100186.69;4984474;28;20261;-72
2022/12/08 00:37:18;;;;;;;2.10;1.57;;;;;;;-1.62;100.00;100186.78;4987029;28;20619;-72
2022/12/08 00:39:44;;;;;;;3.57;1.70;;;;;;;-1.60;100.00;100180.88;4981825;28;20697;-72
2022/12/08 00:42:14;;;;;;;3.30;1.93;;;;;;;-1.48;100.00;100174.22;4986492;28;20221;-73
2022/12/08 00:44:41;;;;;;;3.20;2.37;;;;;;;-1.39;100.00;100175.22;4977768;28;20254;-73
2022/12/08 00:47:08;;;;;;;4.93;2.27;;;;;;;-1.32;100.00;100173.59;4977349;28;20438;-73
2022/12/08 00:49:35;;;;;;;3.30;2.00;;;;;;;-1.28;100.00;100170.28;4989646;28;20372;-73
2022/12/08 00:52:01;;;;;;;2.13;1.67;;;;;;;-1.22;100.00;100177.16;4990545;28;20221;-72
2022/12/08 00:54:28;;;;;;;2.93;1.80;;;;;;;-1.20;100.00;100172.94;4990308;28;20209;-74
2022/12/08 00:56:54;;;;;;;7.10;2.17;;;;;;;-1.12;100.00;100176.47;4991514;28;20205;-74
2022/12/08 00:59:20;;;;;;;1.67;1.43;;;;;;;-1.09;100.00;100180.75;4988940;28;20420;-73
2022/12/08 01:01:47;;;;;;;3.37;2.03;;;;;;;-1.06;100.00;100181.66;4989151;28;20209;-73
2022/12/08 01:04:17;;;;;;;5.53;2.00;;;;;;;-1.03;100.00;100180.84;4990336;28;20194;-72
2022/12/08 01:06:44;;;;;;;4.20;2.53;;;;;;;-1.00;100.00;100183.47;4987524;28;20241;-74
2022/12/08 01:09:12;;;;;;;4.70;2.50;;;;;;;-0.99;100.00;100182.59;4988100;28;20793;-74
2022/12/08 01:11:39;;;;;;;7.50;2.27;;;;;;;-0.97;100.00;100179.25;4993390;28;20719;-74
2022/12/08 01:14:05;;;;;;;4.40;2.20;;;;;;;-0.95;100.00;100189.47;4986764;28;20198;-72
2022/12/08 01:16:34;;;;;;;3.23;2.33;;;;;;;-0.94;100.00;100178.41;4990175;28;20212;-73
2022/12/08 01:19:01;;;;;;;5.63;2.13;;;;;;;-0.90;100.00;100189.56;4990253;28;20197;-74
2022/12/08 01:21:29;;;;;;;2.53;1.87;;;;;;;-0.89;100.00;100189.56;4992935;28;20199;-72
2022/12/08 01:23:56;;;;;;;5.33;1.97;;;;;;;-0.88;100.00;100185.31;4986775;28;20605;-72
2022/12/08 01:26:23;;;;;;;5.23;2.40;;;;;;;-0.85;100.00;100185.34;4988871;28;20208;-73
2022/12/08 01:28:49;;;;;;;3.13;2.10;;;;;;;-0.81;100.00;100177.75;4991239;28;20228;-73
2022/12/08 01:31:18;;;;;;;6.83;2.20;;;;;;;-0.79;100.00;100175.22;4990890;28;20213;-74
2022/12/08 01:33:44;;;;;;;5.13;2.00;;;;;;;-0.78;100.00;100169.22;4995619;28;20213;-74
2022/12/08 01:36:20;;;;;;;3.23;1.93;;;;;;;-0.78;100.00;100167.53;4985061;28;20201;-74
2022/12/08 01:38:48;;;;;;;2.47;1.80;;;;;;;-0.74;100.00;100165.00;4978918;28;20220;-73
2022/12/08 01:41:15;;;;;;;3.73;1.97;;;;;;;-0.73;100.00;100157.34;4988393;28;20660;-74
2022/12/08 01:43:58;;;;;;;5.60;2.60;;;;;;;-0.70;100.00;100164.19;4989291;28;20301;-74
2022/12/08 01:46:26;;;;;;;3.10;2.33;;;;;;;-0.69;100.00;100166.78;4990609;28;20209;-73
2022/12/08 01:48:58;;;;;;;4.90;2.27;;;;;;;-0.68;100.00;100163.41;4987043;28;20205;-73
2022/12/08 01:51:25;;;;;;;4.00;2.30;;;;;;;-0.66;100.00;100166.81;4987599;28;20218;-73
2022/12/08 01:53:53;;;;;;;1.70;1.60;;;;;;;-0.64;100.00;100154.03;4986860;28;20234;-74
2022/12/08 01:56:26;;;;;;;3.87;2.23;;;;;;;-0.63;100.00;100150.66;4985003;28;20209;-73
2022/12/08 01:58:55;;;;;;;2.63;1.80;;;;;;;-0.61;100.00;100152.38;4964909;28;20583;-74
2022/12/08 02:01:21;;;;;;;2.33;1.90;;;;;;;-0.62;100.00;100150.66;4991983;28;20193;-74
2022/12/08 02:03:53;;;;;;;3.03;1.80;;;;;;;-0.60;100.00;100146.44;4988619;28;20221;-74
2022/12/08 02:06:20;;;;;;;4.17;1.90;;;;;;;-0.56;100.00;100155.00;4973541;28;20205;-74
2022/12/08 02:08:48;;;;;;;2.93;1.90;;;;;;;-0.55;100.00;100155.84;4979077;28;20660;-73
2022/12/08 02:11:16;;;;;;;3.10;1.90;;;;;;;-0.53;100.00;100149.91;5054430;28;20613;-74
2022/12/08 02:13:45;;;;;;;3.23;1.90;;;;;;;-0.52;100.00;100137.97;4964753;28;20236;-73
2022/12/08 02:16:25;;;;;;;2.07;1.57;;;;;;;-0.49;100.00;100140.53;4987605;28;20189;-74
2022/12/08 02:19:02;;;;;;;3.23;1.83;;;;;;;-0.49;100.00;100133.75;4982514;28;20197;-74
2022/12/08 02:21:37;;;;;;;6.30;1.73;;;;;;;-0.47;100.00;100136.31;4981091;28;20213;-74
2022/12/08 02:24:12;;;;;;;2.20;1.70;;;;;;;-0.48;100.00;100130.31;4980139;28;20202;-74
2022/12/08 02:27:07;;;;;;;2.37;1.97;;;;;;;-0.45;100.00;100124.38;4993703;28;20205;-74
2022/12/08 02:30:01;;;;;;;4.13;1.77;;;;;;;-0.44;100.00;100118.41;4976988;28;20574;-73
2022/12/08 02:32:45;;;;;;;2.63;1.90;;;;;;;-0.44;100.00;100115.84;4978796;28;20730;-74
2022/12/08 02:35:17;;;;;;;6.90;1.87;;;;;;;-0.43;100.00;100120.13;5039076;28;20369;-73
2022/12/08 02:37:50;;;;;;;5.20;2.03;;;;;;;-0.41;100.00;100111.59;4981699;28;20597;-74
2022/12/08 02:40:23;;;;;;;3.10;1.90;;;;;;;-0.40;100.00;100107.38;4987191;28;20695;-74
2022/12/08 02:42:57;;;;;;;4.87;2.37;;;;;;;-0.41;100.00;100106.47;4981945;28;20218;-73
2022/12/08 02:45:28;;;;;;;5.70;2.63;;;;;;;-0.39;100.00;100109.06;4990385;28;20223;-74
2022/12/08 02:47:55;;;;;;;5.07;2.27;;;;;;;-0.39;100.00;100099.69;4981981;28;20204;-73
2022/12/08 02:50:23;;;;;;;3.00;2.43;;;;;;;-0.40;100.00;100104.81;4980104;28;20222;-74
2022/12/08 02:52:50;;;;;;;5.47;2.53;;;;;;;-0.39;100.00;100104.81;4972501;28;20736;-74
2022/12/08 02:55:24;;;;;;;4.47;2.70;;;;;;;-0.38;100.00;100106.53;4973991;28;20212;-74
2022/12/08 02:58:05;;;;;;;3.90;3.07;;;;;;;-0.37;100.00;100097.13;4992305;28;20708;-73
2022/12/08 03:00:41;;;;;;;3.30;2.60;;;;;;;-0.34;100.00;100092.03;4983294;28;20266;-74
2022/12/08 03:03:14;;;;;;;5.17;3.10;;;;;;;-0.34;100.00;100089.47;4972370;28;20231;-73
2022/12/08 03:05:55;;;;;;;5.60;3.83;;;;;;;-0.30;100.00;100087.81;4985971;28;20209;-74
2022/12/08 03:08:28;;;;;;;8.00;4.07;;;;;;;-0.27;100.00;100080.16;4992808;28;20197;-75
2022/12/08 03:11:00;;;;;;;6.17;3.73;;;;;;;-0.24;100.00;100081.03;4994142;28;20212;-73
2022/12/08 03:13:34;;;;;;;11.87;4.93;;;;;;;-0.22;100.00;100075.94;4992291;28;20229;-73
2022/12/08 03:16:02;;;;;;;9.77;4.63;;;;;;;-0.20;100.00;100072.53;4983344;28;20201;-74
2022/12/08 03:18:33;;;;;;;7.47;4.07;;;;;;;-0.16;100.00;100062.31;4987059;28;20227;-73
2022/12/08 03:21:02;;;;;;;7.63;4.83;;;;;;;-0.16;100.00;100065.72;4989404;28;20196;-73
2022/12/08 03:23:30;;;;;;;8.57;5.23;;;;;;;-0.16;100.00;100064.88;4989072;28;20221;-74
2022/12/08 03:26:03;;;;;;;10.50;4.83;;;;;;;-0.12;100.00;100064.03;4972776;28;20253;-74
2022/12/08 03:28:30;;;;;;;9.93;5.50;;;;;;;-0.11;100.00;100068.34;4999490;28;20284;-75
2022/12/08 03:31:02;;;;;;;8.63;5.10;;;;;;;-0.08;100.00;100060.69;4969798;28;20224;-75
2022/12/08 03:33:32;;;;;;;11.40;5.43;;;;;;;-0.08;100.00;100065.81;4999870;28;20221;-73
2022/12/08 03:36:02;;;;;;;8.07;4.83;;;;;;;-0.05;100.00;100058.16;4990353;28;20201;-74
2022/12/08 03:38:37;;;;;;;7.27;4.60;;;;;;;-0.03;100.00;100053.88;4975942;28;20210;-75
2022/12/08 03:41:19;;;;;;;13.03;5.30;;;;;;;-0.03;100.00;100047.06;4989611;28;20207;-74
2022/12/08 03:43:45;;;;;;;10.77;5.07;;;;;;;-0.01;100.00;100047.06;4990434;28;20246;-74
2022/12/08 03:46:12;;;;;;;9.90;5.83;;;;;;;0.03;100.00;100047.94;4989499;28;20239;-74
2022/12/08 03:48:38;;;;;;;11.27;5.40;;;;;;;0.02;100.00;100049.66;4989905;28;20208;-74
2022/12/08 03:51:07;;;;;;;11.03;5.73;;;;;;;0.04;100.00;100047.97;4986615;28;20229;-75
2022/12/08 03:53:34;;;;;;;9.33;5.50;;;;;;;0.05;100.00;100041.97;4989564;28;20234;-73
2022/12/08 03:56:00;;;;;;;8.03;4.83;;;;;;;0.06;100.00;100048.81;4997087;28;20201;-73
2022/12/08 03:58:27;;;;;;;9.37;5.03;;;;;;;0.07;100.00;100045.44;4994987;28;20205;-73
2022/12/08 04:00:53;;;;;;;9.27;5.27;;;;;;;0.09;100.00;100042.84;4993170;28;20198;-72
2022/12/08 04:03:19;;;;;;;11.17;5.63;;;;;;;0.09;100.00;100041.16;4995298;28;20225;-73
2022/12/08 04:05:47;;;;;;;12.13;5.70;;;;;;;0.11;100.00;100038.63;4987440;28;20197;-73
2022/12/08 04:08:14;;;;;;;10.90;5.33;;;;;;;0.11;100.00;100030.94;4989174;28;20407;-73
2022/12/08 04:10:41;;;;;;;15.73;6.13;;;;;;;0.07;100.00;100032.59;4972141;28;20227;-72
2022/12/08 04:13:07;;;;;;;8.20;5.17;;;;;;;0.07;100.00;100026.59;4986002;28;20225;-73
2022/12/08 04:15:33;;;;;;;10.93;5.53;;;;;;;0.05;100.00;100026.59;4979144;28;20205;-73
2022/12/08 04:18:00;;;;;;;11.47;5.03;;;;;;;0.06;100.00;100019.78;4985312;28;20620;-72
2022/12/08 04:20:26;;;;;;;10.17;5.17;;;;;;;0.06;100.00;100020.63;4983670;28;20217;-73
2022/12/08 04:22:52;;;;;;;9.67;5.40;;;;;;;0.05;100.00;100018.06;4978390;28;20225;-73
2022/12/08 04:25:20;;;;;;;10.07;4.73;;;;;;;0.06;100.00;100009.53;4969022;28;20213;-74
2022/12/08 04:27:46;;;;;;;8.73;5.10;;;;;;;0.05;100.00;100007.78;4979592;28;20217;-74
2022/12/08 04:30:13;;;;;;;12.40;5.43;;;;;;;0.04;100.00;100009.50;4982539;28;20218;-73
2022/12/08 04:32:39;;;;;;;12.27;5.17;;;;;;;0.06;100.00;100006.97;4974804;28;20235;-73
2022/12/08 04:35:06;;;;;;;8.83;4.53;;;;;;;0.05;100.00;100007.78;4986767;28;20209;-72
2022/12/08 04:37:33;;;;;;;12.10;4.60;;;;;;;0.06;100.00;100007.81;4983284;28;20202;-71
2022/12/08 04:39:59;;;;;;;7.73;4.63;;;;;;;0.07;100.00;100011.22;4977936;28;20203;-73
2022/12/08 04:42:27;;;;;;;8.67;4.93;;;;;;;0.09;100.00;100004.41;4988379;28;20236;-73
2022/12/08 04:44:53;;;;;;;10.17;5.13;;;;;;;0.09;100.00;100007.84;4988565;28;20205;-73
2022/12/08 04:47:21;;;;;;;15.27;5.47;;;;;;;0.09;100.00;100000.16;4987355;28;20198;-73
2022/12/08 04:49:47;;;;;;;8.90;5.67;;;;;;;0.11;100.00;99997.59;4976293;28;20205;-72
2022/12/08 04:52:14;;;;;;;10.47;5.67;;;;;;;0.10;100.00;99993.31;4999473;23;20224;31
2022/12/08 04:54:41;;;;;;;9.73;5.37;;;;;;;0.12;100.00;99994.16;4953076;28;20722;-73
2022/12/08 04:57:07;;;;;;;8.33;5.07;;;;;;;0.09;100.00;99997.59;4954435;28;20704;-74
2022/12/08 04:59:35;;;;;;;9.63;4.70;;;;;;;0.10;100.00;99993.31;4957872;28;20700;-74
2022/12/08 05:02:01;;;;;;;11.27;4.73;;;;;;;0.09;100.00;99996.72;4955993;28;20223;-73
2022/12/08 05:04:28;;;;;;;10.57;4.70;;;;;;;0.09;100.00;99996.72;4978574;28;20229;-74
2022/12/08 05:06:54;;;;;;;13.63;5.40;;;;;;;0.08;100.00;99988.16;4984207;28;20588;-75
2022/12/08 05:09:20;;;;;;;9.77;4.80;;;;;;;0.09;100.00;99992.47;4981644;28;20392;-73
2022/12/08 05:11:47;;;;;;;13.07;5.00;;;;;;;0.10;100.00;100001.84;4978601;28;20584;-74
2022/12/08 05:14:15;;;;;;;10.37;4.90;;;;;;;0.12;100.00;99991.59;4980627;28;20225;-74
2022/12/08 05:16:44;;;;;;;10.03;5.20;;;;;;;0.12;100.00;99995.03;4975489;28;20642;-75
2022/12/08 05:19:10;;;;;;;10.73;4.77;;;;;;;0.12;100.00;99995.03;4987578;28;20198;-74
2022/12/08 05:21:37;;;;;;;7.83;4.87;;;;;;;0.12;100.00;99989.91;4978547;28;20597;-75
2022/12/08 05:24:04;;;;;;;6.93;4.43;;;;;;;0.13;100.00;99993.34;4976402;28;20713;-75
2022/12/08 05:26:30;;;;;;;11.53;5.10;;;;;;;0.11;100.00;99995.88;4977524;28;20226;-72
2022/12/08 05:28:57;;;;;;;7.73;4.57;;;;;;;0.13;100.00;99994.19;4976729;28;20262;-73
2022/12/08 05:31:23;;;;;;;9.47;5.37;;;;;;;0.13;100.00;99993.34;4977020;28;20526;-74
2022/12/08 05:33:52;;;;;;;11.33;5.17;;;;;;;0.14;100.00;99984.78;4981768;28;20221;-75
2022/12/08 05:36:19;;;;;;;8.50;4.67;;;;;;;0.14;100.00;99987.34;4978851;28;20304;-74
2022/12/08 05:38:46;;;;;;;9.93;4.60;;;;;;;0.14;100.00;99992.47;4979369;28;20205;-73
2022/12/08 05:41:15;;;;;;;13.47;6.30;;;;;;;0.14;100.00;99992.47;4979010;28;20445;-74
2022/12/08 05:43:42;;;;;;;9.30;5.23;;;;;;;0.13;100.00;99983.94;4975305;28;20217;-74
2022/12/08 05:46:09;;;;;;;9.33;4.70;;;;;;;0.14;100.00;99988.22;4977864;28;20505;-74
2022/12/08 05:48:36;;;;;;;10.23;5.63;;;;;;;0.18;100.00;99989.94;4977757;28;20211;-75
2022/12/08 05:51:05;;;;;;;13.27;6.10;;;;;;;0.17;100.00;99988.22;4976677;28;20206;-74
2022/12/08 05:53:31;;;;;;;11.23;6.03;;;;;;;0.19;100.00;99988.22;4977490;28;20712;-74
2022/12/08 05:55:58;;;;;;;12.13;5.60;;;;;;;0.21;100.00;99985.69;4977692;28;20260;-74
2022/12/08 05:58:24;;;;;;;8.47;5.30;;;;;;;0.21;100.00;99993.38;4955600;28;20247;-75
2022/12/08 06:00:51;;;;;;;10.13;5.60;;;;;;;0.21;100.00;99977.97;4979735;28;20284;-74
2022/12/08 06:03:18;;;;;;;11.60;5.83;;;;;;;0.22;100.00;99977.16;4979089;28;20243;-74
2022/12/08 06:05:46;;;;;;;12.73;6.67;;;;;;;0.23;100.00;99983.97;4978430;28;20227;-73
2022/12/08 06:08:14;;;;;;;12.57;6.10;;;;;;;0.23;100.00;99984.84;4975919;28;20279;-75
2022/12/08 06:10:42;;;;;;;8.97;5.63;;;;;;;0.23;100.00;99976.28;4985353;28;20512;-74
2022/12/08 06:13:08;;;;;;;11.33;6.27;;;;;;;0.24;100.00;99976.28;4977725;28;20240;-74
2022/12/08 06:15:35;;;;;;;15.43;8.50;;;;;;;0.26;100.00;99979.72;4974999;28;20206;-75
2022/12/08 06:18:01;;;;;;;10.20;6.40;;;;;;;0.26;100.00;99977.16;4980580;28;20256;-74
2022/12/08 06:20:28;;;;;;;14.03;7.37;;;;;;;0.30;100.00;99978.03;4973233;28;20206;-74
2022/12/08 06:22:54;;;;;;;10.83;6.47;;;;;;;0.30;100.00;99981.47;4969200;28;20228;-74
2022/12/08 06:25:22;;;;;;;10.53;6.73;;;;;;;0.31;100.00;99982.31;4971612;28;20685;-75
2022/12/08 06:27:49;;;;;;;11.33;6.10;;;;;;;0.32;100.00;99981.47;4977338;28;20220;-74
2022/12/08 06:30:17;;;;;;;9.80;5.90;;;;;;;0.33;100.00;99988.31;4970533;28;20209;-75
2022/12/08 06:32:44;;;;;;;9.00;6.17;;;;;;;0.32;100.00;99990.03;4975319;28;20237;-74
2022/12/08 06:35:10;;;;;;;14.03;6.10;;;;;;;0.30;100.00;99986.59;4973140;28;20201;-74
2022/12/08 06:37:37;;;;;;;11.63;6.07;;;;;;;0.29;100.00;99995.13;4974870;28;20661;-75
2022/12/08 06:40:03;;;;;;;12.07;6.07;;;;;;;0.27;100.00;99994.28;4974703;28;20564;-74
2022/12/08 06:42:43;;;;;;;17.47;6.57;;;;;;;0.26;100.00;99999.38;4973497;28;20779;-74
2022/12/08 06:45:11;;;;;;;15.73;7.20;;;;;;;0.22;100.00;99995.94;4971986;28;20564;-75
2022/12/08 06:47:37;;;;;;;10.33;6.27;;;;;;;0.23;100.00;99987.41;4972172;28;20486;-74
2022/12/08 06:50:04;;;;;;;11.37;6.47;;;;;;;0.25;100.00;99992.56;4978950;28;20681;-75
2022/12/08 06:52:31;;;;;;;11.97;6.27;;;;;;;0.25;100.00;99997.69;4977125;28;20249;-74
2022/12/08 06:54:58;;;;;;;13.93;7.27;;;;;;;0.26;100.00;99999.38;4975018;28;20201;-74
2022/12/08 06:57:24;;;;;;;12.67;6.73;;;;;;;0.26;100.00;99999.38;4974806;28;20693;-74
2022/12/08 06:59:52;;;;;;;12.47;6.73;;;;;;;0.26;100.00;100001.94;4978996;28;20216;-74
2022/12/08 07:02:18;;;;;;;15.63;7.00;;;;;;;0.22;100.00;100006.19;4970959;28;20205;-74
2022/12/08 07:04:45;;;;;;;14.27;7.70;;;;;;;0.19;100.00;100003.63;4974627;28;20206;-73
2022/12/08 07:07:11;;;;;;;17.80;7.93;;;;;;;0.12;100.00;100007.88;4977504;28;20286;-75
2022/12/08 07:09:37;;;;;;;14.13;9.37;;;;;;;-0.01;100.00;100004.34;4981725;28;20201;-75
2022/12/08 07:12:04;;;;;;;19.10;8.97;;;;;;;-0.09;100.00;100008.56;4976509;28;20217;-74
2022/12/08 07:14:30;;;;;;;16.20;9.33;;;;;;;-0.15;100.00;100002.53;4974368;28;20674;-74
2022/12/08 07:16:58;;;;;;;15.33;8.50;;;;;;;-0.21;100.00;100008.47;4973527;28;20707;-75
2022/12/08 07:19:24;;;;;;;12.87;7.63;;;;;;;-0.28;100.00;100010.13;4974893;28;20213;-75
2022/12/08 07:21:51;;;;;;;12.13;7.53;;;;;;;-0.33;100.00;100010.94;4967926;28;20688;-75
2022/12/08 07:24:17;;;;;;;17.13;8.80;;;;;;;-0.38;100.00;100009.19;4971149;28;20237;-74
2022/12/08 07:26:43;;;;;;;12.80;7.43;;;;;;;-0.33;100.00;100010.94;4973225;28;20202;-74
2022/12/08 07:29:10;;;;;;;12.80;8.40;;;;;;;-0.27;100.00;100013.53;4961306;28;20687;-74
2022/12/08 07:31:36;;;;;;;19.50;11.37;;;;;;;-0.25;100.00;100004.16;4978823;28;20270;-73
2022/12/08 07:34:04;;;;;;;14.17;9.37;;;;;;;-0.27;100.00;100009.25;4975730;28;20235;-74
2022/12/08 07:36:31;;;;;;;13.57;8.93;;;;;;;-0.29;100.00;100002.44;4973088;28;20201;-73
2022/12/08 07:38:57;;;;;;;12.07;7.83;;;;;;;-0.28;100.00;100006.69;4975132;28;20708;-74
2022/12/08 07:41:25;;;;;;;33.57;14.27;;;;;;;-0.33;100.00;100003.25;4977568;28;20915;-74
2022/12/08 07:43:52;;;;;;;23.67;10.00;;;;;;;-0.36;100.00;100000.66;4977037;28;20221;-74
2022/12/08 07:46:21;;;;;;;17.93;8.30;;;;;;;-0.37;100.00;100004.91;4978991;28;20209;-74
2022/12/08 07:48:47;;;;;;;16.00;8.97;;;;;;;-0.38;100.00;99993.81;4971929;28;20681;-73
2022/12/08 07:51:17;;;;;;;16.50;8.50;;;;;;;-0.37;100.00;99992.09;4975500;28;20194;-74
2022/12/08 07:53:45;;;;;;;22.50;9.70;;;;;;;-0.39;100.00;99994.69;4972029;28;20597;-74
2022/12/08 07:56:13;;;;;;;14.40;8.63;;;;;;;-0.38;100.00;99990.41;4972632;28;20204;-74
2022/12/08 07:58:40;;;;;;;21.83;9.13;;;;;;;-0.36;100.00;99992.97;4972260;28;20630;-74
2022/12/08 08:01:18;;;;;;;15.13;8.00;;;;;;;-0.31;100.00;99996.44;4975602;28;20662;-74
2022/12/08 08:03:44;;;;;;;20.70;8.90;;;;;;;-0.28;100.00;100001.56;4979144;28;20228;-72
2022/12/08 08:06:11;;;;;;;21.90;10.10;;;;;;;-0.25;100.00;99996.47;4977276;28;20209;-75
2022/12/08 08:08:38;;;;;;;25.73;12.37;;;;;;;-0.23;100.00;99995.66;4978115;28;20216;-75
2022/12/08 08:11:06;;;;;;;20.67;10.50;;;;;;;-0.16;100.00;99993.97;4976728;28;20220;-73
2022/12/08 08:13:32;;;;;;;19.03;9.40;;;;;;;-0.13;100.00;100006.81;4974757;28;20236;-74
2022/12/08 08:16:03;;;;;;;16.50;9.03;;;;;;;-0.11;100.00;99996.59;4971913;28;20201;-74
2022/12/08 08:18:29;;;;;;;17.17;7.67;;;;;;;-0.10;100.00;100004.28;4975854;28;20214;-75
2022/12/08 08:20:55;;;;;;;20.33;8.87;;;;;;;-0.08;100.00;99999.16;4986505;28;20220;-75
2022/12/08 08:23:22;;;;;;;16.37;8.67;;;;;;;-0.07;100.00;100006.00;4978802;28;20225;-75
2022/12/08 08:25:49;;;;;;;23.50;10.30;;;;;;;-0.07;100.00;100003.44;4977517;28;20214;-75
2022/12/08 08:28:16;;;;;;;15.23;7.63;;;;;;;-0.06;100.00;100005.16;4971158;28;20210;-75
2022/12/08 08:30:42;;;;;;;16.23;8.33;;;;;;;-0.02;100.00;100009.44;4971732;28;20511;-72
2022/12/08 08:33:08;;;;;;;16.90;8.10;;;;;;;0.01;100.00;100004.34;4979949;28;20438;-74
2022/12/08 08:35:35;;;;;;;17.47;9.73;;;;;;;0.07;100.00;100008.66;4978729;28;20591;-73
2022/12/08 08:38:01;;;;;;;15.97;9.13;;;;;;;0.08;100.00;100000.97;4976542;28;20201;-74
2022/12/08 08:40:27;;;;;;;31.70;14.40;;;;;;;0.12;100.00;100010.44;4989973;28;20210;-73
2022/12/08 08:42:55;;;;;;;18.77;10.63;;;;;;;0.15;100.00;100009.56;4983313;28;20209;-73
2022/12/08 08:45:22;;;;;;;22.07;10.77;;;;;;;0.17;100.00;100007.88;4956160;28;20240;-73
2022/12/08 08:47:48;;;;;;;16.13;9.20;;;;;;;0.17;100.00;100006.16;4986262;28;20205;-74
2022/12/08 08:50:14;;;;;;;15.30;8.20;;;;;;;0.19;100.00;100008.75;4972917;28;20211;-73
2022/12/08 08:52:41;;;;;;;18.07;9.10;;;;;;;0.21;100.00;100008.75;4980045;28;20790;-74
2022/12/08 08:55:08;;;;;;;17.13;9.40;;;;;;;0.24;100.00;100001.94;4976060;28;20201;-74
2022/12/08 08:57:34;;;;;;;19.77;10.10;;;;;;;0.26;100.00;100002.78;4984937;28;20604;-74
2022/12/08 09:00:03;;;;;;;16.67;9.03;;;;;;;0.28;100.00;100006.25;4975608;28;20693;-73
2022/12/08 09:02:29;;;;;;;19.90;9.83;;;;;;;0.29;100.00;100007.09;4975368;28;20225;-74
2022/12/08 09:04:55;;;;;;;16.43;8.90;;;;;;;0.30;100.00;99999.41;4977952;28;20216;-73
2022/12/08 09:07:22;;;;;;;20.50;9.97;;;;;;;0.31;100.00;100008.81;4978209;28;20218;-74
2022/12/08 09:09:48;;;;;;;18.27;8.80;;;;;;;0.32;100.00;100012.25;4979181;28;20205;-74
2022/12/08 09:12:15;;;;;;;16.30;8.37;;;;;;;0.35;100.00;100007.13;4977178;28;20624;-74
2022/12/08 09:14:41;;;;;;;17.37;8.30;;;;;;;0.38;100.00;100010.56;4975006;28;20202;-74
2022/12/08 09:17:09;;;;;;;16.30;8.73;;;;;;;0.44;100.00;100006.31;4975172;28;20212;-73
2022/12/08 09:19:35;;;;;;;19.00;9.30;;;;;;;0.45;100.00;100000.34;4977380;28;20275;-74
2022/12/08 09:22:02;;;;;;;17.40;9.27;;;;;;;0.44;100.00;100007.19;4972358;28;20359;-74
2022/12/08 09:24:29;;;;;;;17.10;8.87;;;;;;;0.43;100.00;100005.47;4973567;28;20738;-73
2022/12/08 09:26:55;;;;;;;19.03;8.97;;;;;;;0.46;100.00;99996.91;4975107;28;20212;-73
2022/12/08 09:29:22;;;;;;;15.80;9.13;;;;;;;0.51;100.00;100005.50;4973987;28;20755;-74
2022/12/08 09:31:48;;;;;;;21.13;8.70;;;;;;;0.56;100.00;99998.69;4978728;28;20549;-74
2022/12/08 09:34:16;;;;;;;17.60;8.83;;;;;;;0.63;100.00;100004.69;4981216;28;20600;-74
2022/12/08 09:36:42;;;;;;;16.13;8.73;;;;;;;0.68;100.00;100000.44;4977311;28;20201;-72
2022/12/08 09:39:09;;;;;;;17.93;8.17;;;;;;;0.69;100.00;99997.91;4982660;28;20305;-74
2022/12/08 09:41:37;;;;;;;16.37;9.07;;;;;;;0.70;100.00;99991.03;4981012;28;20201;-74
2022/12/08 09:44:20;;;;;;;15.33;8.10;;;;;;;0.76;100.00;99993.66;4980521;28;20225;-73
2022/12/08 09:46:48;;;;;;;19.97;10.03;;;;;;;0.70;100.00;99983.34;4980682;28;20203;-74
2022/12/08 09:49:20;;;;;;;20.43;8.77;;;;;;;0.71;100.00;99995.34;4982426;28;20208;-74
2022/12/08 09:51:46;;;;;;;17.77;8.63;;;;;;;0.77;100.00;100003.03;4981355;28;20197;-74
2022/12/08 09:54:18;;;;;;;17.53;9.47;;;;;;;0.87;100.00;99991.13;4980796;28;20232;-74
2022/12/08 09:56:44;;;;;;;20.80;8.70;;;;;;;0.92;100.00;99992.84;4982002;28;20506;-74
2022/12/08 09:59:22;;;;;;;16.27;9.17;;;;;;;0.94;100.00;99986.00;4980602;28;20197;-74
2022/12/08 10:01:49;;;;;;;17.83;8.63;;;;;;;0.98;100.00;99981.72;4978803;28;20205;-73
2022/12/08 10:04:21;;;;;;;18.83;9.33;;;;;;;1.03;100.00;99980.03;4981015;28;20229;-74
2022/12/08 10:06:59;;;;;;;22.60;9.93;;;;;;;1.07;100.00;99980.91;4977663;28;20694;-74
2022/12/08 10:09:31;;;;;;;23.60;10.37;;;;;;;1.12;100.00;99977.47;4980343;28;20213;-74
2022/12/08 10:12:03;;;;;;;18.73;9.60;;;;;;;1.16;100.00;99968.06;4981576;28;20514;-74
2022/12/08 10:14:37;;;;;;;24.30;10.47;;;;;;;1.17;100.00;99969.78;4978189;28;20226;-74
2022/12/08 10:17:12;;;;;;;19.43;9.43;;;;;;;1.18;100.00;99968.06;4977699;28;20201;-74
2022/12/08 10:19:41;;;;;;;15.67;8.47;;;;;;;1.18;100.00;99968.94;4982768;28;20720;-73
2022/12/08 10:22:15;;;;;;;18.40;8.63;;;;;;;1.25;100.00;99962.97;4978810;28;20213;-74
2022/12/08 10:24:48;;;;;;;19.57;8.80;;;;;;;1.32;100.00;99951.84;4979777;28;20211;-73
2022/12/08 10:27:14;;;;;;;20.53;9.60;;;;;;;1.37;100.00;99953.53;4979831;28;20216;-73
2022/12/08 10:29:41;;;;;;;20.10;9.87;;;;;;;1.39;100.00;99954.41;4976017;28;20202;-72
2022/12/08 10:32:16;;;;;;;20.50;8.43;;;;;;;1.42;100.00;99951.84;4972488;28;20205;-73
2022/12/08 10:37:36;;;;;;;21.17;9.63;;;;;;;1.47;100.00;99950.97;5075360;27;20733;-73
2022/12/08 10:40:09;;;;;;;18.37;9.00;;;;;;;1.48;100.00;99944.16;5067864;28;20202;-73
2022/12/08 10:42:39;;;;;;;15.00;7.77;;;;;;;1.47;100.00;99945.00;5074927;28;20222;-72
2022/12/08 10:45:22;;;;;;;20.57;8.33;;;;;;;1.48;100.00;99944.16;5064162;28;20202;-71
2022/12/08 10:47:57;;;;;;;16.50;7.93;;;;;;;1.47;100.00;99943.28;5081949;22;20186;-71
2022/12/08 10:50:29;;;;;;;19.00;8.63;;;;;;;1.51;100.00;99945.00;5034068;28;20202;-71
2022/12/08 10:52:59;;;;;;;18.40;8.87;;;;;;;1.63;100.00;99943.28;5033101;28;20208;-72
2022/12/08 10:55:26;;;;;;;16.00;8.03;;;;;;;1.75;100.00;99939.84;5034960;28;20207;-72
2022/12/08 10:57:52;;;;;;;25.47;9.57;;;;;;;1.88;100.00;99941.53;5032665;28;20223;-72
2022/12/08 11:00:21;;;;;;;25.13;9.47;;;;;;;2.00;100.00;99936.38;5031055;28;20574;-72
2022/12/08 11:02:59;;;;;;;19.37;9.60;;;;;;;2.11;100.00;99945.78;5036509;28;20203;-72
2022/12/08 11:05:29;;;;;;;20.97;8.80;;;;;;;2.15;100.00;99932.91;5035113;28;20199;-72
2022/12/08 11:07:57;;;;;;;20.73;9.60;;;;;;;2.18;100.00;99937.19;5015577;28;20227;-72
2022/12/08 11:10:33;;;;;;;21.63;9.60;;;;;;;2.18;100.00;99932.03;5027554;28;20245;-72
2022/12/08 11:13:05;;;;;;;22.17;9.43;;;;;;;2.23;100.00;99927.72;5037902;28;20206;-72
2022/12/08 11:15:37;;;;;;;17.80;9.20;;;;;;;2.28;100.00;99915.72;5034512;28;20491;-72
2022/12/08 11:18:12;;;;;;;19.27;8.90;;;;;;;2.38;100.00;99919.97;5037201;28;20902;-72
2022/12/08 11:20:41;;;;;;;16.80;8.53;;;;;;;2.51;100.00;99915.63;5039434;28;20199;-71
2022/12/08 11:23:20;;;;;;;16.93;9.07;;;;;;;2.65;100.00;99915.56;5038684;28;20203;-72
2022/12/08 11:25:48;;;;;;;18.40;8.43;;;;;;;2.76;100.00;99906.06;5034395;28;20194;-71
2022/12/08 11:28:21;;;;;;;22.67;9.10;;;;;;;2.82;100.00;99911.16;5037254;28;20734;-71
2022/12/08 11:30:53;;;;;;;22.80;10.37;;;;;;;2.91;100.00;99910.25;5037204;28;20204;-72
2022/12/08 11:33:22;;;;;;;17.77;9.27;;;;;;;2.96;100.00;99902.53;5036804;28;20203;-72
2022/12/08 11:35:54;;;;;;;23.70;9.80;;;;;;;3.01;100.00;99899.03;5034137;28;20222;-71